createdAt,value
2018-10-07T00:00:06.810Z,16.90
2018-10-07T00:02:37.146Z,16.90
2018-10-07T00:05:07.494Z,16.90
2018-10-07T00:07:37.856Z,16.90
2018-10-07T00:10:08.161Z,16.90
2018-10-07T00:12:38.504Z,16.90
2018-10-07T00:15:08.825Z,16.80
2018-10-07T00:17:39.434Z,16.80
2018-10-07T00:20:09.755Z,16.80
2018-10-07T00:22:40.340Z,16.80
2018-10-07T00:25:10.932Z,16.70
2018-10-07T00:27:41.524Z,16.70
2018-10-07T00:30:11.831Z,16.70
2018-10-07T00:32:42.201Z,16.60
2018-10-07T00:35:12.520Z,16.60
2018-10-07T00:37:42.906Z,16.60
2018-10-07T00:40:13.277Z,16.50
2018-10-07T00:42:43.625Z,16.50
2018-10-07T00:45:13.961Z,16.50
2018-10-07T00:47:44.325Z,16.50
2018-10-07T00:50:14.905Z,16.50
2018-10-07T00:52:45.252Z,16.50
2018-10-07T00:55:15.850Z,16.50
2018-10-07T00:57:46.446Z,16.50
2018-10-07T01:00:16.765Z,16.50
2018-10-07T01:02:47.091Z,16.40
2018-10-07T01:05:17.414Z,16.40
2018-10-07T01:07:48.006Z,16.40
2018-10-07T01:10:18.334Z,16.40
2018-10-07T01:12:48.665Z,16.40
2018-10-07T01:15:18.997Z,16.40
2018-10-07T01:17:49.341Z,16.40
2018-10-07T01:20:20.178Z,16.30
2018-10-07T01:22:50.525Z,16.30
2018-10-07T01:25:20.852Z,16.30
2018-10-07T01:27:51.441Z,16.20
2018-10-07T01:30:22.840Z,16.20
2018-10-07T01:32:55.237Z,16.20
2018-10-07T01:35:25.913Z,16.20
2018-10-07T01:37:56.513Z,16.20
2018-10-07T01:40:26.863Z,16.10
2018-10-07T01:42:57.284Z,16.10
2018-10-07T01:45:27.629Z,16.10
2018-10-07T01:47:58.125Z,16.10
2018-10-07T01:50:28.692Z,16.00
2018-10-07T01:52:59.292Z,16.00
2018-10-07T01:55:29.868Z,16.00
2018-10-07T01:58:00.516Z,16.00
2018-10-07T02:00:30.849Z,16.00
2018-10-07T02:03:01.205Z,16.00
2018-10-07T02:05:31.813Z,16.00
2018-10-07T02:08:02.273Z,15.90
2018-10-07T02:10:32.596Z,15.90
2018-10-07T02:13:02.926Z,15.90
2018-10-07T02:15:33.250Z,15.80
2018-10-07T02:18:03.703Z,15.80
2018-10-07T02:20:34.041Z,15.80
2018-10-07T02:23:04.398Z,15.70
2018-10-07T02:25:34.953Z,15.70
2018-10-07T02:28:06.009Z,15.70
2018-10-07T02:30:36.564Z,15.70
2018-10-07T02:33:06.953Z,15.70
2018-10-07T02:35:37.303Z,15.60
2018-10-07T02:38:07.920Z,15.60
2018-10-07T02:40:40.277Z,15.50
2018-10-07T02:43:11.545Z,15.50
2018-10-07T02:45:41.861Z,15.50
2018-10-07T02:48:12.218Z,15.50
2018-10-07T02:50:42.537Z,15.40
2018-10-07T02:53:12.948Z,15.40
2018-10-07T02:55:43.418Z,15.40
2018-10-07T02:58:13.765Z,15.40
2018-10-07T03:00:44.069Z,15.30
2018-10-07T03:03:14.403Z,15.30
2018-10-07T03:05:44.956Z,15.30
2018-10-07T03:08:15.313Z,15.30
2018-10-07T03:10:45.874Z,15.30
2018-10-07T03:13:16.467Z,15.30
2018-10-07T03:15:47.018Z,15.30
2018-10-07T03:18:17.593Z,15.30
2018-10-07T03:20:47.904Z,15.30
2018-10-07T03:23:18.262Z,15.30
2018-10-07T03:25:48.577Z,15.20
2018-10-07T03:28:18.949Z,15.20
2018-10-07T03:30:49.717Z,15.20
2018-10-07T03:33:20.088Z,15.20
2018-10-07T03:35:50.655Z,15.20
2018-10-07T03:38:21.034Z,15.20
2018-10-07T03:40:51.421Z,15.20
2018-10-07T03:43:21.785Z,15.10
2018-10-07T03:45:52.101Z,15.10
2018-10-07T03:48:22.556Z,15.10
2018-10-07T03:50:53.121Z,15.10
2018-10-07T03:53:23.989Z,15.00
2018-10-07T03:55:54.674Z,15.00
2018-10-07T03:58:25.033Z,14.90
2018-10-07T04:00:55.383Z,14.90
2018-10-07T04:03:25.976Z,14.90
2018-10-07T04:05:56.565Z,14.90
2018-10-07T04:08:27.169Z,14.90
2018-10-07T04:10:57.489Z,14.90
2018-10-07T04:13:27.840Z,14.80
2018-10-07T04:15:58.172Z,14.80
2018-10-07T04:18:28.752Z,14.80
2018-10-07T04:20:59.064Z,14.80
2018-10-07T04:23:29.649Z,14.80
2018-10-07T04:25:59.982Z,14.70
2018-10-07T04:28:30.306Z,14.70
2018-10-07T04:31:00.637Z,14.70
2018-10-07T04:33:30.979Z,14.60
2018-10-07T04:36:01.301Z,14.60
2018-10-07T04:38:31.628Z,14.60
2018-10-07T04:41:02.208Z,14.60
2018-10-07T04:43:32.796Z,14.50
2018-10-07T04:46:03.149Z,14.50
2018-10-07T04:48:33.485Z,14.50
2018-10-07T04:51:04.103Z,14.50
2018-10-07T04:53:34.433Z,14.40
2018-10-07T04:56:04.757Z,14.40
2018-10-07T04:58:35.085Z,14.40
2018-10-07T05:01:05.441Z,14.40
2018-10-07T05:03:36.015Z,14.40
2018-10-07T05:06:06.448Z,14.30
2018-10-07T05:08:36.774Z,14.40
2018-10-07T05:11:07.113Z,14.40
2018-10-07T05:13:50.142Z,14.30
2018-10-07T05:16:37.404Z,14.30
2018-10-07T05:19:07.964Z,14.30
2018-10-07T05:21:38.868Z,14.30
2018-10-07T05:24:09.474Z,14.30
2018-10-07T05:26:39.890Z,14.20
2018-10-07T05:29:10.217Z,14.20
2018-10-07T05:31:40.519Z,14.10
2018-10-07T05:34:10.868Z,14.10
2018-10-07T05:36:41.189Z,14.10
2018-10-07T05:39:12.510Z,14.00
2018-10-07T05:41:42.850Z,13.90
2018-10-07T05:44:13.220Z,13.90
2018-10-07T05:46:43.949Z,13.90
2018-10-07T05:49:14.289Z,13.90
2018-10-07T05:51:44.604Z,13.90
2018-10-07T05:54:14.937Z,13.90
2018-10-07T05:56:45.493Z,14.00
2018-10-07T05:59:16.069Z,14.00
2018-10-07T06:01:46.419Z,14.00
2018-10-07T06:04:26.339Z,14.00
2018-10-07T06:06:59.744Z,14.00
2018-10-07T06:09:33.345Z,14.00
2018-10-07T06:12:03.656Z,14.00
2018-10-07T06:14:51.019Z,14.10
2018-10-07T06:17:21.462Z,14.10
2018-10-07T06:19:52.002Z,14.10
2018-10-07T06:22:22.596Z,14.10
2018-10-07T06:24:53.165Z,14.10
2018-10-07T06:27:23.468Z,14.10
2018-10-07T06:29:53.813Z,14.10
2018-10-07T06:32:24.315Z,14.10
2018-10-07T06:34:54.877Z,14.20
2018-10-07T06:37:25.513Z,14.20
2018-10-07T06:39:56.139Z,14.30
2018-10-07T06:42:26.857Z,14.40
2018-10-07T06:44:57.177Z,14.40
2018-10-07T06:47:27.490Z,14.50
2018-10-07T06:49:58.065Z,14.60
2018-10-07T06:52:28.376Z,14.70
2018-10-07T06:54:58.955Z,14.80
2018-10-07T06:57:29.504Z,14.90
2018-10-07T07:00:00.372Z,15.00
2018-10-07T07:02:30.677Z,15.10
2018-10-07T07:05:01.003Z,15.20
2018-10-07T07:07:31.309Z,15.30
2018-10-07T07:10:01.877Z,15.40
2018-10-07T07:12:32.199Z,15.50
2018-10-07T07:15:02.757Z,15.70
2018-10-07T07:17:33.330Z,15.80
2018-10-07T07:20:03.647Z,16.00
2018-10-07T07:22:34.480Z,16.10
2018-10-07T07:25:05.065Z,16.30
2018-10-07T07:27:35.384Z,16.40
2018-10-07T07:30:06.226Z,16.60
2018-10-07T07:32:36.805Z,16.70
2018-10-07T07:35:07.358Z,16.90
2018-10-07T07:37:37.933Z,17.00
2018-10-07T07:40:13.221Z,17.10
2018-10-07T07:42:46.164Z,17.20
2018-10-07T07:45:17.479Z,17.30
2018-10-07T07:47:48.069Z,17.40
2018-10-07T07:50:18.388Z,17.50
2018-10-07T07:52:48.978Z,17.60
2018-10-07T07:55:19.302Z,17.70
2018-10-07T07:57:49.838Z,17.80
2018-10-07T08:00:20.174Z,17.90
2018-10-07T08:02:51.540Z,18.10
2018-10-07T08:05:22.097Z,18.20
2018-10-07T08:07:52.801Z,18.30
2018-10-07T08:10:23.133Z,18.40
2018-10-07T08:12:53.517Z,18.50
2018-10-07T08:15:24.129Z,18.60
2018-10-07T08:17:54.486Z,18.70
2018-10-07T08:20:24.977Z,18.70
2018-10-07T08:22:55.304Z,18.90
2018-10-07T08:25:25.883Z,19.00
2018-10-07T08:27:56.202Z,19.10
2018-10-07T08:30:27.009Z,19.30
2018-10-07T08:32:58.053Z,19.40
2018-10-07T08:35:29.673Z,19.60
2018-10-07T08:38:00.009Z,19.70
2018-10-07T08:40:31.433Z,19.90
2018-10-07T08:43:01.768Z,20.00
2018-10-07T08:45:32.064Z,20.10
2018-10-07T08:48:02.437Z,20.30
2018-10-07T08:50:32.764Z,20.40
2018-10-07T08:53:03.101Z,20.60
2018-10-07T08:55:33.413Z,20.70
2018-10-07T08:58:03.774Z,20.90
2018-10-07T09:00:34.093Z,21.00
2018-10-07T09:03:04.432Z,21.20
2018-10-07T09:05:34.985Z,21.30
2018-10-07T09:08:05.329Z,21.40
2018-10-07T09:10:35.953Z,21.50
2018-10-07T09:13:06.360Z,21.60
2018-10-07T09:15:36.656Z,21.70
2018-10-07T09:18:07.313Z,21.80
2018-10-07T09:20:37.636Z,21.90
2018-10-07T09:23:08.060Z,21.90
2018-10-07T09:25:38.905Z,22.00
2018-10-07T09:28:09.570Z,22.10
2018-10-07T09:30:40.233Z,22.20
2018-10-07T09:33:10.561Z,22.30
2018-10-07T09:35:40.907Z,22.40
2018-10-07T09:38:12.497Z,22.50
2018-10-07T09:40:43.400Z,22.50
2018-10-07T09:43:13.735Z,22.60
2018-10-07T09:45:44.057Z,22.70
2018-10-07T09:48:14.393Z,22.80
2018-10-07T09:50:44.721Z,22.90
2018-10-07T09:53:15.072Z,23.00
2018-10-07T09:55:45.642Z,23.10
2018-10-07T09:58:16.215Z,23.10
2018-10-07T10:00:47.546Z,23.10
2018-10-07T10:03:19.987Z,23.20
2018-10-07T10:05:50.300Z,23.30
2018-10-07T10:08:20.653Z,23.40
2018-10-07T10:10:50.988Z,23.50
2018-10-07T10:13:21.293Z,23.60
2018-10-07T10:15:51.869Z,23.60
2018-10-07T10:18:32.906Z,23.70
2018-10-07T10:21:12.708Z,23.80
2018-10-07T10:24:57.387Z,23.90
2018-10-07T10:27:46.396Z,24.00
2018-10-07T10:30:30.972Z,24.10
2018-10-07T10:33:20.854Z,24.10
2018-10-07T10:37:01.131Z,24.10
2018-10-07T10:39:52.809Z,24.20
2018-10-07T10:43:48.484Z,24.20
2018-10-07T10:46:29.753Z,24.20
2018-10-07T10:49:12.421Z,24.20
2018-10-07T10:52:53.244Z,24.20
2018-10-07T10:55:33.318Z,24.20
2018-10-07T10:58:08.892Z,24.20
2018-10-07T11:00:59.144Z,24.20
2018-10-07T11:04:42.219Z,24.10
2018-10-07T11:08:00.721Z,24.10
2018-10-07T11:10:41.720Z,24.10
2018-10-07T11:13:25.157Z,24.00
2018-10-07T11:16:16.651Z,24.00
2018-10-07T11:23:05.585Z,24.00
2018-10-07T11:26:00.971Z,23.90
2018-10-07T11:28:44.278Z,23.80
2018-10-07T11:31:40.919Z,23.70
2018-10-07T11:34:34.449Z,23.70
2018-10-07T11:38:19.476Z,23.70
2018-10-07T11:43:14.545Z,23.60
2018-10-07T11:45:57.272Z,23.60
2018-10-07T11:48:47.065Z,23.40
2018-10-07T11:53:41.484Z,23.40
2018-10-07T11:56:11.862Z,23.40
2018-10-07T11:58:42.200Z,23.40
2018-10-07T12:01:12.840Z,23.40
2018-10-07T12:03:43.160Z,23.50
2018-10-07T12:06:13.534Z,23.50
2018-10-07T12:08:43.876Z,23.50
2018-10-07T12:11:14.256Z,23.50
2018-10-07T12:13:44.570Z,23.60
2018-10-07T12:16:14.956Z,23.60
2018-10-07T12:18:45.472Z,23.60
2018-10-07T12:21:15.846Z,23.60
2018-10-07T12:23:46.413Z,23.60
2018-10-07T12:26:17.025Z,23.60
2018-10-07T12:28:47.388Z,23.60
2018-10-07T12:31:17.930Z,23.60
2018-10-07T12:33:51.305Z,23.60
2018-10-07T12:36:21.656Z,23.60
2018-10-07T12:38:52.028Z,23.60
2018-10-07T12:41:22.352Z,23.70
2018-10-07T12:43:52.961Z,23.70
2018-10-07T12:46:23.536Z,23.60
2018-10-07T12:48:53.880Z,23.60
2018-10-07T12:51:24.338Z,23.70
2018-10-07T12:53:54.740Z,23.70
2018-10-07T12:56:25.213Z,23.70
2018-10-07T12:58:55.577Z,23.70
2018-10-07T13:01:25.924Z,23.70
2018-10-07T13:03:56.306Z,23.70
2018-10-07T13:06:26.636Z,23.70
2018-10-07T13:08:57.013Z,23.70
2018-10-07T13:11:27.354Z,23.60
2018-10-07T13:13:57.729Z,23.60
2018-10-07T13:16:28.093Z,23.60
2018-10-07T13:18:58.713Z,23.60
2018-10-07T13:21:29.054Z,23.60
2018-10-07T13:23:59.408Z,23.60
2018-10-07T13:26:30.191Z,23.60
2018-10-07T13:29:01.031Z,23.60
2018-10-07T13:31:31.357Z,23.60
2018-10-07T13:34:01.722Z,23.50
2018-10-07T13:36:32.064Z,23.50
2018-10-07T13:39:02.709Z,23.50
2018-10-07T13:41:33.065Z,23.50
2018-10-07T13:44:03.677Z,23.50
2018-10-07T13:46:34.013Z,23.50
2018-10-07T13:49:04.456Z,23.50
2018-10-07T13:51:35.105Z,23.40
2018-10-07T13:54:05.748Z,23.40
2018-10-07T13:56:36.736Z,23.40
2018-10-07T13:59:07.394Z,23.40
2018-10-07T14:01:37.734Z,23.40
2018-10-07T14:04:08.106Z,23.30
2018-10-07T14:06:38.426Z,23.30
2018-10-07T14:09:09.711Z,23.30
2018-10-07T14:11:40.131Z,23.30
2018-10-07T14:14:10.747Z,23.30
2018-10-07T14:16:41.097Z,23.20
2018-10-07T14:19:17.833Z,23.20
2018-10-07T14:21:48.178Z,23.20
2018-10-07T14:24:18.541Z,23.20
2018-10-07T14:26:48.864Z,23.20
2018-10-07T14:29:19.249Z,23.10
2018-10-07T14:31:49.574Z,23.10
2018-10-07T14:34:19.972Z,23.10
2018-10-07T14:36:50.577Z,23.10
2018-10-07T14:39:21.204Z,23.10
2018-10-07T14:41:52.061Z,23.10
2018-10-07T14:44:22.416Z,23.10
2018-10-07T14:46:52.772Z,23.00
2018-10-07T14:49:23.181Z,23.00
2018-10-07T14:51:53.693Z,23.00
2018-10-07T14:54:24.052Z,22.90
2018-10-07T14:56:54.384Z,22.90
2018-10-07T14:59:24.709Z,22.80
2018-10-07T15:01:55.310Z,22.80
2018-10-07T15:04:25.656Z,22.80
2018-10-07T15:06:56.060Z,22.70
2018-10-07T15:09:26.464Z,22.70
2018-10-07T15:11:57.057Z,22.60
2018-10-07T15:14:27.428Z,22.60
2018-10-07T15:16:57.785Z,22.60
2018-10-07T15:19:28.116Z,22.50
2018-10-07T15:21:58.456Z,22.50
2018-10-07T15:24:29.020Z,22.50
2018-10-07T15:26:59.353Z,22.40
2018-10-07T15:29:30.013Z,22.40
2018-10-07T15:32:00.508Z,22.30
2018-10-07T15:34:30.874Z,22.20
2018-10-07T15:37:01.237Z,22.20
2018-10-07T15:39:31.553Z,22.10
2018-10-07T15:42:01.959Z,22.10
2018-10-07T15:44:32.291Z,22.00
2018-10-07T15:47:02.931Z,21.90
2018-10-07T15:49:33.261Z,21.90
2018-10-07T15:52:03.611Z,21.80
2018-10-07T15:54:33.969Z,21.70
2018-10-07T15:57:04.553Z,21.60
2018-10-07T15:59:34.869Z,21.50
2018-10-07T16:02:05.494Z,21.50
2018-10-07T16:04:36.097Z,21.40
2018-10-07T16:07:06.438Z,21.30
2018-10-07T16:09:37.065Z,21.20
2018-10-07T16:12:07.876Z,21.10
2018-10-07T16:14:38.490Z,21.00
2018-10-07T16:17:09.113Z,20.90
2018-10-07T16:19:39.432Z,20.80
2018-10-07T16:22:09.839Z,20.70
2018-10-07T16:24:40.523Z,20.60
2018-10-07T16:27:11.376Z,20.60
2018-10-07T16:29:42.015Z,20.50
2018-10-07T16:32:12.535Z,20.40
2018-10-07T16:34:43.025Z,20.40
2018-10-07T16:37:13.403Z,20.30
2018-10-07T16:39:44.395Z,20.20
2018-10-07T16:42:14.810Z,20.20
2018-10-07T16:44:45.444Z,20.10
2018-10-07T16:47:15.817Z,20.10
2018-10-07T16:49:46.152Z,20.00
2018-10-07T16:52:16.529Z,20.00
2018-10-07T16:54:47.154Z,19.90
2018-10-07T16:57:17.773Z,19.90
2018-10-07T16:59:48.125Z,19.80
2018-10-07T17:02:18.518Z,19.80
2018-10-07T17:04:48.963Z,19.70
2018-10-07T17:07:19.385Z,19.70
2018-10-07T17:09:50.002Z,19.60
2018-10-07T17:12:20.637Z,19.60
2018-10-07T17:14:51.241Z,19.50
2018-10-07T17:17:21.862Z,19.40
2018-10-07T17:19:52.185Z,19.30
2018-10-07T17:22:22.595Z,19.30
2018-10-07T17:24:52.919Z,19.20
2018-10-07T17:27:23.493Z,19.10
2018-10-07T17:29:53.832Z,19.10
2018-10-07T17:32:24.424Z,19.00
2018-10-07T17:34:54.973Z,18.90
2018-10-07T17:37:25.574Z,18.90
2018-10-07T17:39:55.900Z,18.80
2018-10-07T17:42:26.528Z,18.80
2018-10-07T17:44:57.256Z,18.70
2018-10-07T17:47:27.583Z,18.60
2018-10-07T17:49:57.881Z,18.60
2018-10-07T17:52:28.212Z,18.50
2018-10-07T17:54:58.618Z,18.40
2018-10-07T17:57:29.098Z,18.40
2018-10-07T17:59:59.404Z,18.30
2018-10-07T18:02:29.719Z,18.30
2018-10-07T18:05:00.049Z,18.20
2018-10-07T18:07:30.364Z,18.20
2018-10-07T18:10:00.701Z,18.10
2018-10-07T18:12:31.278Z,18.10
2018-10-07T18:15:01.912Z,18.00
2018-10-07T18:17:32.377Z,18.00
2018-10-07T18:20:02.949Z,17.90
2018-10-07T18:22:33.510Z,17.90
2018-10-07T18:25:03.864Z,17.80
2018-10-07T18:27:34.516Z,17.80
2018-10-07T18:30:04.860Z,17.80
2018-10-07T18:32:35.417Z,17.70
2018-10-07T18:35:05.774Z,17.70
2018-10-07T18:37:36.333Z,17.60
2018-10-07T18:40:06.708Z,17.60
2018-10-07T18:42:37.180Z,17.60
2018-10-07T18:45:07.516Z,17.50
2018-10-07T18:47:37.860Z,17.50
2018-10-07T18:50:08.443Z,17.50
2018-10-07T18:52:38.752Z,17.50
2018-10-07T18:55:09.089Z,17.40
2018-10-07T18:57:39.400Z,17.40
2018-10-07T19:00:11.173Z,17.40
2018-10-07T19:02:41.604Z,17.40
2018-10-07T19:05:12.377Z,17.40
2018-10-07T19:07:42.694Z,17.30
2018-10-07T19:10:13.265Z,17.30
2018-10-07T19:12:43.588Z,17.30
2018-10-07T19:15:13.937Z,17.20
2018-10-07T19:17:45.925Z,17.20
2018-10-07T19:20:16.346Z,17.20
2018-10-07T19:22:46.917Z,17.10
2018-10-07T19:25:17.353Z,17.10
2018-10-07T19:27:47.701Z,17.10
2018-10-07T19:30:18.280Z,17.00
2018-10-07T19:32:48.606Z,17.00
2018-10-07T19:35:18.945Z,17.00
2018-10-07T19:37:49.256Z,16.90
2018-10-07T19:40:19.860Z,16.90
2018-10-07T19:42:50.485Z,16.90
2018-10-07T19:45:21.238Z,16.90
2018-10-07T19:47:51.794Z,16.80
2018-10-07T19:50:22.144Z,16.80
2018-10-07T19:52:52.511Z,16.80
2018-10-07T19:55:23.092Z,16.80
2018-10-07T19:57:53.405Z,16.80
2018-10-07T20:00:23.743Z,16.80
2018-10-07T20:02:54.051Z,16.80
2018-10-07T20:05:24.633Z,16.80
2018-10-07T20:07:54.949Z,16.80
2018-10-07T20:10:25.517Z,16.80
2018-10-07T20:12:56.092Z,16.80
2018-10-07T20:15:26.675Z,16.80
2018-10-07T20:17:56.984Z,16.80
2018-10-07T20:20:27.340Z,16.70
2018-10-07T20:22:57.655Z,16.80
2018-10-07T20:25:28.241Z,16.80
2018-10-07T20:27:58.568Z,16.70
2018-10-07T20:30:28.901Z,16.80
2018-10-07T20:32:59.493Z,16.80
2018-10-07T20:35:30.057Z,16.70
2018-10-07T20:38:00.397Z,16.80
2018-10-07T20:40:31.050Z,16.80
2018-10-07T20:43:01.556Z,16.80
2018-10-07T20:45:31.869Z,16.80
2018-10-07T20:48:02.261Z,16.80
2018-10-07T20:50:32.586Z,16.80
2018-10-07T20:53:02.945Z,16.80
2018-10-07T20:55:33.253Z,16.80
2018-10-07T20:58:04.145Z,16.80
2018-10-07T21:00:34.463Z,16.80
2018-10-07T21:03:05.057Z,16.80
2018-10-07T21:05:35.624Z,16.80
2018-10-07T21:08:06.424Z,16.80
2018-10-07T21:10:36.969Z,16.80
2018-10-07T21:13:07.313Z,16.80
2018-10-07T21:15:37.613Z,16.80
2018-10-07T21:18:08.293Z,16.80
2018-10-07T21:20:38.597Z,16.80
2018-10-07T21:23:09.160Z,16.70
2018-10-07T21:25:39.728Z,16.70
2018-10-07T21:28:10.319Z,16.80
2018-10-07T21:30:41.062Z,16.70
2018-10-07T21:33:11.650Z,16.70
2018-10-07T21:35:42.201Z,16.70
2018-10-07T21:38:12.796Z,16.70
2018-10-07T21:40:43.470Z,16.70
2018-10-07T21:43:14.045Z,16.70
2018-10-07T21:45:44.356Z,16.70
2018-10-07T21:48:14.684Z,16.70
2018-10-07T21:50:44.992Z,16.70
2018-10-07T21:53:15.320Z,16.70
2018-10-07T21:55:45.633Z,16.60
2018-10-07T21:58:16.213Z,16.60
2018-10-07T22:00:46.782Z,16.60
2018-10-07T22:03:17.102Z,16.60
2018-10-07T22:05:47.404Z,16.50
2018-10-07T22:08:18.745Z,16.50
2018-10-07T22:10:49.059Z,16.50
2018-10-07T22:13:19.645Z,16.50
2018-10-07T22:15:50.201Z,16.50
2018-10-07T22:18:21.020Z,16.40
2018-10-07T22:20:51.560Z,16.40
2018-10-07T22:23:22.129Z,16.40
2018-10-07T22:25:52.728Z,16.30
2018-10-07T22:28:23.064Z,16.30
2018-10-07T22:30:53.612Z,16.30
2018-10-07T22:33:24.188Z,16.20
2018-10-07T22:35:54.503Z,16.10
2018-10-07T22:38:25.088Z,16.20
2018-10-07T22:40:55.660Z,16.10
2018-10-07T22:43:26.000Z,16.10
2018-10-07T22:45:56.553Z,16.10
2018-10-07T22:48:26.902Z,16.00
2018-10-07T22:50:57.201Z,16.00
2018-10-07T22:53:27.777Z,16.00
2018-10-07T22:55:58.085Z,16.00
2018-10-07T22:58:28.664Z,16.00
2018-10-07T23:00:58.982Z,16.00
2018-10-07T23:03:29.316Z,16.00
2018-10-07T23:05:59.870Z,15.90
2018-10-07T23:08:30.224Z,16.00
2018-10-07T23:11:00.773Z,16.00
2018-10-07T23:13:31.356Z,15.90
2018-10-07T23:16:01.914Z,15.90
2018-10-07T23:18:32.735Z,15.90
2018-10-07T23:21:03.052Z,15.90
2018-10-07T23:23:33.665Z,16.00
2018-10-07T23:26:04.228Z,16.00
2018-10-07T23:28:34.839Z,15.90
2018-10-07T23:31:05.580Z,15.90
2018-10-07T23:33:36.193Z,16.00
2018-10-07T23:36:06.540Z,16.00
2018-10-07T23:38:36.886Z,16.00
2018-10-07T23:41:07.645Z,16.00
2018-10-07T23:43:37.989Z,15.90
2018-10-07T23:46:08.333Z,15.90
2018-10-07T23:48:38.897Z,15.90
2018-10-07T23:51:09.476Z,15.90
2018-10-07T23:53:40.016Z,15.90
2018-10-07T23:56:10.349Z,15.90
2018-10-07T23:58:40.980Z,15.80
